createdAt,value
2017-07-10T00:01:47.787Z,19.60
2017-07-10T00:04:15.245Z,19.50
2017-07-10T00:06:42.703Z,19.60
2017-07-10T00:09:10.175Z,19.50
2017-07-10T00:11:37.614Z,19.30
2017-07-10T00:14:05.074Z,19.20
2017-07-10T00:16:32.516Z,19.20
2017-07-10T00:18:59.977Z,19.10
2017-07-10T00:21:27.419Z,19.00
2017-07-10T00:23:54.867Z,18.90
2017-07-10T00:26:22.310Z,18.80
2017-07-10T00:28:49.761Z,18.60
2017-07-10T00:31:17.201Z,18.60
2017-07-10T00:33:44.647Z,18.60
2017-07-10T00:36:12.860Z,18.80
2017-07-10T00:38:40.325Z,18.80
2017-07-10T00:41:07.779Z,18.80
2017-07-10T00:43:35.223Z,18.80
2017-07-10T00:46:02.672Z,18.80
2017-07-10T00:48:30.116Z,18.90
2017-07-10T00:50:57.569Z,18.90
2017-07-10T00:53:25.780Z,18.70
2017-07-10T00:55:53.235Z,18.70
2017-07-10T00:58:20.682Z,18.70
2017-07-10T01:00:48.147Z,18.90
2017-07-10T01:03:15.588Z,18.90
2017-07-10T01:05:43.060Z,19.00
2017-07-10T01:08:10.512Z,19.10
2017-07-10T01:10:37.948Z,19.20
2017-07-10T01:13:05.399Z,19.00
2017-07-10T01:15:32.843Z,19.00
2017-07-10T01:18:01.064Z,18.90
2017-07-10T01:20:28.512Z,18.90
2017-07-10T01:22:55.970Z,19.00
2017-07-10T01:25:23.432Z,18.90
2017-07-10T01:27:50.883Z,18.90
2017-07-10T01:30:18.327Z,19.10
2017-07-10T01:32:45.816Z,19.10
2017-07-10T01:35:13.263Z,19.20
2017-07-10T01:37:41.275Z,19.20
2017-07-10T01:40:09.496Z,19.20
2017-07-10T01:42:36.939Z,19.20
2017-07-10T01:45:04.394Z,19.00
2017-07-10T01:47:31.835Z,19.20
2017-07-10T01:49:59.284Z,19.20
2017-07-10T01:52:27.501Z,19.20
2017-07-10T01:54:54.948Z,19.20
2017-07-10T01:57:22.407Z,19.30
2017-07-10T01:59:49.864Z,19.40
2017-07-10T02:02:17.313Z,19.40
2017-07-10T02:04:44.778Z,19.40
2017-07-10T02:07:12.219Z,19.50
2017-07-10T02:09:39.659Z,19.30
2017-07-10T02:12:07.111Z,19.20
2017-07-10T02:14:35.319Z,19.10
2017-07-10T02:17:02.772Z,19.00
2017-07-10T02:19:30.224Z,19.10
2017-07-10T02:21:57.684Z,19.10
2017-07-10T02:24:25.119Z,19.00
2017-07-10T02:26:52.576Z,18.90
2017-07-10T02:29:20.034Z,19.00
2017-07-10T02:31:49.044Z,18.80
2017-07-10T02:34:16.497Z,18.80
2017-07-10T02:36:43.935Z,18.80
2017-07-10T02:39:11.387Z,19.00
2017-07-10T02:41:38.827Z,18.90
2017-07-10T02:44:06.282Z,18.90
2017-07-10T02:46:34.504Z,19.00
2017-07-10T02:49:01.959Z,19.00
2017-07-10T02:51:29.412Z,18.90
2017-07-10T02:53:56.876Z,18.80
2017-07-10T02:56:24.327Z,18.80
2017-07-10T02:58:51.784Z,18.80
2017-07-10T03:01:19.244Z,18.80
2017-07-10T03:03:46.687Z,18.90
2017-07-10T03:06:14.155Z,18.90
2017-07-10T03:08:41.608Z,19.00
2017-07-10T03:11:09.072Z,18.90
2017-07-10T03:13:36.520Z,19.00
2017-07-10T03:16:04.004Z,19.00
2017-07-10T03:18:31.464Z,18.60
2017-07-10T03:20:58.903Z,18.60
2017-07-10T03:23:26.350Z,18.50
2017-07-10T03:25:53.803Z,18.40
2017-07-10T03:28:21.259Z,18.50
2017-07-10T03:30:48.717Z,18.70
2017-07-10T03:33:16.180Z,18.70
2017-07-10T03:35:43.627Z,18.80
2017-07-10T03:38:11.082Z,18.90
2017-07-10T03:40:38.540Z,19.00
2017-07-10T03:43:05.997Z,19.00
2017-07-10T03:45:33.455Z,19.10
2017-07-10T03:48:00.944Z,19.10
2017-07-10T03:50:28.387Z,19.20
2017-07-10T03:52:55.845Z,19.20
2017-07-10T03:55:23.301Z,19.20
2017-07-10T03:57:50.753Z,19.20
2017-07-10T04:00:18.216Z,19.30
2017-07-10T04:02:45.684Z,19.30
2017-07-10T04:05:13.140Z,19.30
2017-07-10T04:07:41.103Z,19.40
2017-07-10T04:10:08.563Z,19.40
2017-07-10T04:12:36.012Z,19.50
2017-07-10T04:15:03.479Z,19.50
2017-07-10T04:17:30.930Z,19.50
2017-07-10T04:19:58.372Z,19.50
2017-07-10T04:22:25.825Z,19.50
2017-07-10T04:24:53.268Z,19.50
2017-07-10T04:27:20.720Z,19.60
2017-07-10T04:29:48.164Z,19.70
2017-07-10T04:32:15.633Z,19.70
2017-07-10T04:34:43.068Z,19.50
2017-07-10T04:37:10.547Z,19.40
2017-07-10T04:39:37.988Z,19.20
2017-07-10T04:42:05.462Z,19.10
2017-07-10T04:44:32.991Z,19.00
2017-07-10T04:47:00.499Z,19.00
2017-07-10T04:49:27.951Z,18.90
2017-07-10T04:51:55.400Z,18.90
2017-07-10T04:54:22.848Z,18.90
2017-07-10T04:56:50.307Z,18.90
2017-07-10T04:59:17.819Z,18.80
2017-07-10T05:01:46.041Z,18.80
2017-07-10T05:04:13.486Z,18.80
2017-07-10T05:06:40.937Z,18.80
2017-07-10T05:09:08.380Z,19.00
2017-07-10T05:11:35.832Z,19.20
2017-07-10T05:14:03.499Z,19.20
2017-07-10T05:16:30.952Z,19.30
2017-07-10T05:18:58.395Z,19.20
2017-07-10T05:21:25.846Z,19.20
2017-07-10T05:23:53.295Z,19.10
2017-07-10T05:26:21.529Z,19.40
2017-07-10T05:28:48.971Z,19.40
2017-07-10T05:31:16.432Z,19.60
2017-07-10T05:33:43.891Z,19.90
2017-07-10T05:36:11.340Z,19.80
2017-07-10T05:38:38.809Z,19.60
2017-07-10T05:41:06.251Z,19.50
2017-07-10T05:43:33.736Z,19.60
2017-07-10T05:46:01.188Z,19.80
2017-07-10T05:48:28.649Z,19.90
2017-07-10T05:50:56.141Z,19.90
2017-07-10T05:53:24.385Z,20.10
2017-07-10T05:55:51.828Z,20.00
2017-07-10T05:58:19.264Z,20.10
2017-07-10T06:00:46.726Z,20.10
2017-07-10T06:03:14.186Z,20.30
2017-07-10T06:05:41.636Z,20.30
2017-07-10T06:08:09.092Z,20.30
2017-07-10T06:10:36.549Z,20.30
2017-07-10T06:13:04.004Z,20.20
2017-07-10T06:15:31.459Z,20.30
2017-07-10T06:17:58.911Z,20.40
2017-07-10T06:20:26.361Z,20.20
2017-07-10T06:22:53.811Z,20.20
2017-07-10T06:25:21.255Z,20.30
2017-07-10T06:27:48.707Z,20.40
2017-07-10T06:30:16.168Z,20.60
2017-07-10T06:32:43.611Z,20.60
2017-07-10T06:35:11.828Z,20.90
2017-07-10T06:37:39.303Z,20.90
2017-07-10T06:40:06.758Z,21.20
2017-07-10T06:42:34.216Z,21.40
2017-07-10T06:45:01.677Z,21.40
2017-07-10T06:47:29.136Z,21.70
2017-07-10T06:49:56.591Z,21.30
2017-07-10T06:52:24.045Z,21.30
2017-07-10T06:54:51.516Z,22.10
2017-07-10T06:57:18.974Z,22.90
2017-07-10T06:59:46.429Z,22.40
2017-07-10T07:02:13.879Z,22.80
2017-07-10T07:04:41.343Z,23.10
2017-07-10T07:07:08.797Z,21.50
2017-07-10T07:09:36.240Z,21.60
2017-07-10T07:12:04.467Z,21.60
2017-07-10T07:14:31.912Z,22.00
2017-07-10T07:16:59.367Z,21.70
2017-07-10T07:19:27.584Z,22.30
2017-07-10T07:21:55.056Z,22.30
2017-07-10T07:24:22.522Z,22.60
2017-07-10T07:26:49.965Z,22.40
2017-07-10T07:29:17.433Z,22.40
2017-07-10T07:31:44.901Z,22.20
2017-07-10T07:34:12.353Z,22.60
2017-07-10T07:36:39.808Z,23.30
2017-07-10T07:39:07.264Z,22.40
2017-07-10T07:41:34.712Z,22.50
2017-07-10T07:44:02.161Z,23.40
2017-07-10T07:46:29.608Z,24.30
2017-07-10T07:48:57.083Z,24.00
2017-07-10T07:51:24.536Z,24.50
2017-07-10T07:53:51.975Z,23.80
2017-07-10T07:56:19.452Z,23.80
2017-07-10T07:58:46.901Z,23.30
2017-07-10T08:01:14.376Z,23.50
2017-07-10T08:03:41.825Z,23.10
2017-07-10T08:06:09.289Z,23.00
2017-07-10T08:08:36.741Z,23.50
2017-07-10T08:11:04.196Z,23.80
2017-07-10T08:13:31.653Z,23.70
2017-07-10T08:15:59.120Z,23.90
2017-07-10T08:18:26.569Z,24.30
2017-07-10T08:20:54.020Z,23.90
2017-07-10T08:23:21.470Z,23.60
2017-07-10T08:25:48.915Z,24.10
2017-07-10T08:28:16.367Z,24.90
2017-07-10T08:30:43.814Z,25.40
2017-07-10T08:33:11.275Z,24.70
2017-07-10T08:35:38.725Z,25.10
2017-07-10T08:38:06.185Z,24.50
2017-07-10T08:40:33.631Z,24.70
2017-07-10T08:43:01.105Z,24.30
2017-07-10T08:45:28.548Z,23.70
2017-07-10T08:47:56.004Z,23.40
2017-07-10T08:50:23.467Z,23.20
2017-07-10T08:52:50.917Z,23.30
2017-07-10T08:55:18.372Z,23.30
2017-07-10T08:57:45.837Z,23.50
2017-07-10T09:00:13.290Z,23.20
2017-07-10T09:02:40.736Z,23.20
2017-07-10T09:05:08.180Z,23.50
2017-07-10T09:07:35.626Z,23.90
2017-07-10T09:10:03.113Z,23.60
2017-07-10T09:12:30.568Z,23.60
2017-07-10T09:14:58.108Z,23.80
2017-07-10T09:17:25.584Z,24.00
2017-07-10T09:19:53.035Z,24.20
2017-07-10T09:22:20.492Z,23.80
2017-07-10T09:24:47.947Z,24.20
2017-07-10T09:27:15.407Z,23.90
2017-07-10T09:29:42.857Z,23.60
2017-07-10T09:32:10.313Z,23.80
2017-07-10T09:34:37.766Z,24.00
2017-07-10T09:37:05.211Z,24.00
2017-07-10T09:39:32.653Z,24.20
2017-07-10T09:42:00.896Z,24.60
2017-07-10T09:44:28.356Z,24.60
2017-07-10T09:46:55.811Z,24.00
2017-07-10T09:49:23.264Z,24.00
2017-07-10T09:51:50.708Z,24.30
2017-07-10T09:54:18.160Z,24.40
2017-07-10T09:56:45.636Z,24.30
2017-07-10T09:59:13.089Z,24.50
2017-07-10T10:01:40.533Z,24.80
2017-07-10T10:04:07.980Z,25.30
2017-07-10T10:06:35.426Z,25.30
2017-07-10T10:09:02.884Z,25.90
2017-07-10T10:11:30.339Z,26.10
2017-07-10T10:13:57.786Z,26.10
2017-07-10T10:16:25.243Z,26.40
2017-07-10T10:18:52.710Z,26.50
2017-07-10T10:21:20.163Z,26.60
2017-07-10T10:23:47.617Z,26.60
2017-07-10T10:26:15.073Z,26.80
2017-07-10T10:28:42.533Z,26.90
2017-07-10T10:31:09.983Z,26.90
2017-07-10T10:33:37.423Z,26.40
2017-07-10T10:36:04.872Z,26.80
2017-07-10T10:38:32.313Z,27.80
2017-07-10T10:40:59.763Z,28.50
2017-07-10T10:43:27.984Z,29.20
2017-07-10T10:45:55.476Z,29.10
2017-07-10T10:48:22.936Z,28.70
2017-07-10T10:50:50.388Z,27.50
2017-07-10T10:53:17.844Z,27.70
2017-07-10T10:55:45.304Z,26.90
2017-07-10T10:58:12.759Z,26.50
2017-07-10T11:00:40.230Z,26.60
2017-07-10T11:03:07.680Z,26.30
2017-07-10T11:05:35.128Z,25.70
2017-07-10T11:08:02.584Z,25.00
2017-07-10T11:10:30.040Z,25.20
2017-07-10T11:12:57.508Z,25.00
2017-07-10T11:15:24.953Z,24.70
2017-07-10T11:17:52.403Z,25.00
2017-07-10T11:20:19.861Z,24.50
2017-07-10T11:22:47.319Z,24.00
2017-07-10T11:25:14.775Z,23.80
2017-07-10T11:27:42.224Z,23.40
2017-07-10T11:30:09.676Z,23.80
2017-07-10T11:32:37.131Z,24.20
2017-07-10T11:35:04.600Z,24.80
2017-07-10T11:37:32.059Z,25.50
2017-07-10T11:39:59.513Z,26.50
2017-07-10T11:42:26.954Z,27.00
2017-07-10T11:44:54.407Z,27.90
2017-07-10T11:47:21.868Z,26.90
2017-07-10T11:49:49.326Z,27.10
2017-07-10T11:52:16.781Z,28.10
2017-07-10T11:54:44.242Z,27.30
2017-07-10T11:57:11.692Z,27.90
2017-07-10T11:59:39.180Z,26.40
2017-07-10T12:02:06.626Z,26.40
2017-07-10T12:04:34.081Z,26.40
2017-07-10T12:07:01.521Z,26.80
2017-07-10T12:09:28.981Z,26.70
2017-07-10T12:11:56.432Z,26.50
2017-07-10T12:14:23.880Z,26.30
2017-07-10T12:16:51.347Z,26.10
2017-07-10T12:19:18.800Z,26.20
2017-07-10T12:21:46.249Z,26.90
2017-07-10T12:24:13.691Z,27.50
2017-07-10T12:26:41.147Z,28.30
2017-07-10T12:29:08.615Z,28.00
2017-07-10T12:31:36.064Z,26.60
2017-07-10T12:34:03.514Z,26.00
2017-07-10T12:36:30.976Z,26.30
2017-07-10T12:38:58.427Z,26.10
2017-07-10T12:41:25.888Z,26.00
2017-07-10T12:43:53.339Z,26.10
2017-07-10T12:46:20.796Z,25.70
2017-07-10T12:48:48.240Z,25.40
2017-07-10T12:51:15.688Z,24.50
2017-07-10T12:53:43.141Z,23.30
2017-07-10T12:56:10.591Z,23.10
2017-07-10T12:58:38.041Z,22.90
2017-07-10T13:01:05.488Z,23.00
2017-07-10T13:03:32.940Z,23.10
2017-07-10T13:06:00.432Z,23.30
2017-07-10T13:08:27.907Z,23.50
2017-07-10T13:10:55.395Z,23.70
2017-07-10T13:13:22.853Z,23.90
2017-07-10T13:15:50.325Z,23.90
2017-07-10T13:18:17.783Z,24.20
2017-07-10T13:20:46.065Z,24.70
2017-07-10T13:23:13.510Z,24.70
2017-07-10T13:25:41.720Z,24.90
2017-07-10T13:28:09.167Z,24.90
2017-07-10T13:30:36.611Z,25.20
2017-07-10T13:33:04.848Z,25.80
2017-07-10T13:35:32.303Z,25.80
2017-07-10T13:37:59.752Z,26.10
2017-07-10T13:40:27.210Z,26.70
2017-07-10T13:42:54.648Z,26.00
2017-07-10T13:45:22.104Z,26.20
2017-07-10T13:47:49.553Z,26.00
2017-07-10T13:50:17.000Z,26.20
2017-07-10T13:52:44.449Z,25.80
2017-07-10T13:55:11.895Z,25.90
2017-07-10T13:57:39.344Z,26.10
2017-07-10T14:00:06.802Z,25.90
2017-07-10T14:02:35.017Z,26.10
2017-07-10T14:05:02.467Z,26.00
2017-07-10T14:07:29.908Z,25.70
2017-07-10T14:09:57.388Z,25.70
2017-07-10T14:12:24.848Z,25.80
2017-07-10T14:14:52.296Z,26.10
2017-07-10T14:17:19.756Z,26.40
2017-07-10T14:19:47.207Z,26.60
2017-07-10T14:22:14.664Z,26.60
2017-07-10T14:24:42.119Z,26.70
2017-07-10T14:27:09.576Z,26.80
2017-07-10T14:29:37.030Z,26.40
2017-07-10T14:32:04.488Z,26.50
2017-07-10T14:34:31.936Z,26.70
2017-07-10T14:36:59.395Z,26.50
2017-07-10T14:39:26.836Z,26.30
2017-07-10T14:41:54.284Z,25.90
2017-07-10T14:44:21.729Z,25.60
2017-07-10T14:46:49.172Z,25.30
2017-07-10T14:49:16.632Z,25.40
2017-07-10T14:51:44.856Z,25.80
2017-07-10T14:54:12.315Z,25.70
2017-07-10T14:56:39.767Z,25.70
2017-07-10T14:59:07.327Z,25.70
2017-07-10T15:01:34.764Z,25.50
2017-07-10T15:04:02.215Z,25.60
2017-07-10T15:06:29.652Z,25.80
2017-07-10T15:08:57.104Z,26.10
2017-07-10T15:11:24.544Z,25.80
2017-07-10T15:13:52.012Z,25.60
2017-07-10T15:16:20.241Z,25.60
2017-07-10T15:18:47.709Z,25.60
2017-07-10T15:21:15.152Z,25.70
2017-07-10T15:23:42.608Z,25.70
2017-07-10T15:26:10.067Z,25.50
2017-07-10T15:28:37.523Z,25.30
2017-07-10T15:31:04.981Z,25.20
2017-07-10T15:33:32.436Z,24.70
2017-07-10T15:35:59.888Z,24.10
2017-07-10T15:38:27.333Z,23.90
2017-07-10T15:40:54.804Z,23.90
2017-07-10T15:43:22.244Z,23.80
2017-07-10T15:45:49.682Z,23.60
2017-07-10T15:48:17.136Z,23.40
2017-07-10T15:50:45.356Z,23.10
2017-07-10T15:53:12.805Z,23.10
2017-07-10T15:55:40.256Z,22.70
2017-07-10T15:58:07.861Z,22.40
2017-07-10T16:00:35.264Z,22.50
2017-07-10T16:03:02.728Z,22.50
2017-07-10T16:05:30.184Z,22.50
2017-07-10T16:07:57.639Z,22.50
2017-07-10T16:10:25.085Z,22.40
2017-07-10T16:12:53.627Z,22.10
2017-07-10T16:15:21.085Z,22.10
2017-07-10T16:17:48.523Z,22.00
2017-07-10T16:20:15.984Z,21.90
2017-07-10T16:22:43.438Z,22.10
2017-07-10T16:25:10.909Z,22.10
2017-07-10T16:27:38.347Z,22.10
2017-07-10T16:30:05.811Z,22.00
2017-07-10T16:32:33.272Z,21.90
2017-07-10T16:35:00.720Z,22.10
2017-07-10T16:37:28.184Z,22.40
2017-07-10T16:39:55.655Z,22.60
2017-07-10T16:42:23.871Z,23.00
2017-07-10T16:44:51.318Z,23.00
2017-07-10T16:47:18.763Z,23.00
2017-07-10T16:49:46.216Z,23.20
2017-07-10T16:52:13.661Z,23.20
2017-07-10T16:54:41.872Z,23.10
2017-07-10T16:57:09.371Z,23.10
2017-07-10T16:59:36.818Z,22.80
2017-07-10T17:02:04.263Z,22.60
2017-07-10T17:04:31.711Z,22.60
2017-07-10T17:06:59.171Z,22.50
2017-07-10T17:09:26.633Z,22.30
2017-07-10T17:11:54.098Z,22.30
2017-07-10T17:14:21.540Z,22.30
2017-07-10T17:16:48.989Z,22.40
2017-07-10T17:19:16.460Z,22.20
2017-07-10T17:21:43.908Z,22.30
2017-07-10T17:24:11.355Z,22.40
2017-07-10T17:26:38.811Z,22.50
2017-07-10T17:29:06.260Z,22.70
2017-07-10T17:31:33.715Z,22.70
2017-07-10T17:34:01.203Z,22.60
2017-07-10T17:36:28.734Z,22.60
2017-07-10T17:38:56.183Z,22.40
2017-07-10T17:41:23.659Z,22.40
2017-07-10T17:43:51.115Z,22.30
2017-07-10T17:46:18.576Z,22.40
2017-07-10T17:48:46.031Z,22.40
2017-07-10T17:51:13.591Z,22.30
2017-07-10T17:53:41.042Z,22.30
2017-07-10T17:56:08.512Z,22.30
2017-07-10T17:58:35.960Z,22.10
2017-07-10T18:01:03.413Z,22.10
2017-07-10T18:03:30.872Z,22.20
2017-07-10T18:05:58.345Z,22.10
2017-07-10T18:08:25.785Z,22.10
2017-07-10T18:10:53.255Z,22.10
2017-07-10T18:13:20.704Z,22.10
2017-07-10T18:15:48.158Z,22.10
2017-07-10T18:18:15.624Z,22.20
2017-07-10T18:20:43.076Z,22.30
2017-07-10T18:23:10.526Z,22.40
2017-07-10T18:25:37.985Z,22.30
2017-07-10T18:28:05.440Z,22.30
2017-07-10T18:30:32.885Z,22.20
2017-07-10T18:33:00.351Z,22.20
2017-07-10T18:35:27.794Z,22.20
2017-07-10T18:37:55.234Z,22.10
2017-07-10T18:40:22.690Z,22.10
2017-07-10T18:42:50.150Z,22.00
2017-07-10T18:45:17.613Z,22.00
2017-07-10T18:47:45.065Z,22.00
2017-07-10T18:50:12.526Z,22.00
2017-07-10T18:52:39.975Z,21.90
2017-07-10T18:55:07.432Z,21.80
2017-07-10T18:57:34.881Z,21.80
2017-07-10T19:00:02.351Z,21.70
2017-07-10T19:02:29.800Z,21.80
2017-07-10T19:04:57.256Z,21.70
2017-07-10T19:07:24.718Z,21.70
2017-07-10T19:09:52.158Z,21.80
2017-07-10T19:12:20.105Z,21.80
2017-07-10T19:14:47.547Z,21.80
2017-07-10T19:17:15.764Z,21.80
2017-07-10T19:19:43.229Z,21.70
2017-07-10T19:22:10.692Z,21.80
2017-07-10T19:24:38.141Z,21.70
2017-07-10T19:27:05.616Z,21.70
2017-07-10T19:29:33.065Z,21.60
2017-07-10T19:32:00.503Z,21.60
2017-07-10T19:34:27.961Z,21.70
2017-07-10T19:36:55.416Z,21.70
2017-07-10T19:39:22.880Z,21.80
2017-07-10T19:41:50.328Z,21.90
2017-07-10T19:44:17.792Z,21.90
2017-07-10T19:46:45.240Z,21.80
2017-07-10T19:49:12.701Z,21.80
2017-07-10T19:51:40.139Z,21.90
2017-07-10T19:54:07.613Z,21.70
2017-07-10T19:56:35.062Z,21.70
2017-07-10T19:59:02.495Z,21.70
2017-07-10T20:01:29.948Z,21.50
2017-07-10T20:03:57.393Z,21.60
2017-07-10T20:06:25.606Z,21.30
2017-07-10T20:08:53.062Z,21.30
2017-07-10T20:11:20.509Z,21.40
2017-07-10T20:13:47.948Z,21.50
2017-07-10T20:16:15.420Z,21.50
2017-07-10T20:18:42.863Z,20.80
2017-07-10T20:21:10.312Z,20.50
2017-07-10T20:23:38.523Z,20.30
2017-07-10T20:26:05.979Z,20.30
2017-07-10T20:28:33.431Z,20.00
2017-07-10T20:31:00.882Z,19.80
2017-07-10T20:33:28.333Z,19.90
2017-07-10T20:35:55.772Z,19.80
2017-07-10T20:38:23.232Z,19.80
2017-07-10T20:40:50.667Z,19.80
2017-07-10T20:43:18.921Z,19.90
2017-07-10T20:45:46.363Z,19.90
2017-07-10T20:48:13.813Z,19.80
2017-07-10T20:50:41.272Z,19.80
2017-07-10T20:53:08.716Z,19.70
2017-07-10T20:55:36.170Z,19.80
2017-07-10T20:58:03.611Z,19.90
2017-07-10T21:00:31.078Z,20.10
2017-07-10T21:02:58.512Z,20.10
2017-07-10T21:05:25.960Z,20.10
2017-07-10T21:07:53.406Z,20.10
2017-07-10T21:10:22.036Z,20.10
2017-07-10T21:12:49.515Z,20.10
2017-07-10T21:15:16.945Z,20.10
2017-07-10T21:17:44.404Z,19.90
2017-07-10T21:20:11.857Z,19.90
2017-07-10T21:22:39.314Z,19.80
2017-07-10T21:25:06.755Z,19.70
2017-07-10T21:27:34.273Z,19.80
2017-07-10T21:30:01.719Z,20.00
2017-07-10T21:32:29.950Z,20.00
2017-07-10T21:34:57.400Z,20.00
2017-07-10T21:37:24.849Z,19.80
2017-07-10T21:39:52.305Z,19.60
2017-07-10T21:42:19.739Z,19.50
2017-07-10T21:44:48.112Z,19.40
2017-07-10T21:47:16.320Z,19.30
2017-07-10T21:49:43.792Z,19.20
2017-07-10T21:52:11.235Z,19.20
2017-07-10T21:54:39.452Z,19.10
2017-07-10T21:57:06.908Z,19.10
2017-07-10T21:59:34.361Z,19.10
2017-07-10T22:02:01.816Z,19.00
2017-07-10T22:04:29.291Z,19.00
2017-07-10T22:06:56.744Z,19.00
2017-07-10T22:09:24.191Z,18.90
2017-07-10T22:11:51.643Z,19.00
2017-07-10T22:14:19.098Z,18.90
2017-07-10T22:16:46.557Z,18.80
2017-07-10T22:19:14.008Z,18.90
2017-07-10T22:21:41.469Z,18.90
2017-07-10T22:24:08.947Z,18.80
2017-07-10T22:26:36.407Z,18.90
2017-07-10T22:29:03.852Z,19.10
2017-07-10T22:31:31.295Z,19.20
2017-07-10T22:33:58.756Z,19.10
2017-07-10T22:36:26.220Z,19.00
2017-07-10T22:38:53.681Z,19.20
2017-07-10T22:41:21.145Z,19.20
2017-07-10T22:43:48.595Z,18.90
2017-07-10T22:46:16.053Z,18.90
2017-07-10T22:48:43.505Z,18.80
2017-07-10T22:51:10.959Z,18.80
2017-07-10T22:53:38.420Z,18.50
2017-07-10T22:56:05.880Z,18.40
2017-07-10T22:58:33.355Z,18.20
2017-07-10T23:01:00.803Z,18.50
2017-07-10T23:03:28.242Z,18.60
2017-07-10T23:05:55.712Z,18.40
2017-07-10T23:08:23.172Z,18.30
2017-07-10T23:10:50.627Z,18.20
2017-07-10T23:13:18.084Z,18.30
2017-07-10T23:15:45.539Z,18.30
2017-07-10T23:18:12.984Z,18.30
2017-07-10T23:20:40.444Z,18.20
2017-07-10T23:23:07.891Z,18.40
2017-07-10T23:25:35.377Z,18.30
2017-07-10T23:28:02.819Z,18.40
2017-07-10T23:30:30.268Z,18.30
2017-07-10T23:32:57.717Z,18.40
2017-07-10T23:35:25.160Z,18.30
2017-07-10T23:37:52.617Z,18.30
2017-07-10T23:40:20.073Z,18.30
2017-07-10T23:42:47.554Z,18.30
2017-07-10T23:45:14.983Z,18.30
2017-07-10T23:47:42.441Z,18.30
2017-07-10T23:50:09.895Z,18.50
2017-07-10T23:52:37.357Z,18.50
2017-07-10T23:55:04.816Z,18.30
2017-07-10T23:57:32.287Z,18.40
2017-07-10T23:59:59.739Z,18.50
